createdAt,value
2019-03-31T00:01:26.350Z,7.20
2019-03-31T00:03:27.728Z,7.20
2019-03-31T00:05:29.109Z,7.10
2019-03-31T00:07:30.497Z,7.10
2019-03-31T00:09:31.902Z,7.10
2019-03-31T00:11:33.252Z,7.00
2019-03-31T00:13:34.622Z,7.00
2019-03-31T00:15:36.035Z,7.00
2019-03-31T00:17:37.402Z,6.90
2019-03-31T00:19:38.804Z,6.90
2019-03-31T00:21:40.187Z,6.90
2019-03-31T00:23:41.570Z,6.90
2019-03-31T00:25:44.911Z,6.90
2019-03-31T00:27:46.282Z,6.90
2019-03-31T00:29:47.649Z,6.90
2019-03-31T00:31:49.059Z,6.90
2019-03-31T00:33:50.416Z,6.80
2019-03-31T00:35:51.826Z,6.80
2019-03-31T00:37:53.230Z,6.80
2019-03-31T00:39:54.604Z,6.80
2019-03-31T00:41:55.976Z,6.80
2019-03-31T00:43:57.363Z,6.80
2019-03-31T00:45:58.821Z,6.90
2019-03-31T00:48:00.252Z,6.90
2019-03-31T00:50:01.624Z,6.90
2019-03-31T00:52:03.019Z,6.80
2019-03-31T00:54:04.438Z,6.80
2019-03-31T00:56:05.807Z,6.80
2019-03-31T00:58:07.275Z,6.80
2019-03-31T01:00:10.759Z,6.80
2019-03-31T01:02:16.240Z,6.70
2019-03-31T01:04:19.901Z,6.70
2019-03-31T01:06:21.706Z,6.70
2019-03-31T01:08:25.719Z,6.70
2019-03-31T01:10:28.889Z,6.80
2019-03-31T01:12:30.360Z,6.80
2019-03-31T01:14:32.060Z,6.90
2019-03-31T01:16:33.549Z,7.00
2019-03-31T01:18:34.999Z,7.00
2019-03-31T01:20:36.438Z,7.00
2019-03-31T01:22:37.797Z,7.00
2019-03-31T01:24:39.205Z,7.00
2019-03-31T01:26:40.608Z,6.90
2019-03-31T01:28:42.085Z,6.90
2019-03-31T01:30:43.584Z,6.80
2019-03-31T01:32:44.966Z,6.80
2019-03-31T01:34:46.345Z,6.70
2019-03-31T01:36:47.731Z,6.70
2019-03-31T01:38:49.247Z,6.80
2019-03-31T01:40:50.738Z,6.80
2019-03-31T01:42:52.128Z,6.80
2019-03-31T01:44:53.498Z,6.80
2019-03-31T01:46:54.851Z,6.70
2019-03-31T01:48:56.436Z,6.70
2019-03-31T01:50:57.809Z,6.70
2019-03-31T01:52:59.187Z,6.60
2019-03-31T01:55:00.591Z,6.60
2019-03-31T01:57:02.081Z,6.60
2019-03-31T01:59:03.486Z,6.60
2019-03-31T02:01:07.344Z,6.60
2019-03-31T02:03:08.835Z,6.50
2019-03-31T02:05:10.232Z,6.50
2019-03-31T02:07:11.746Z,6.50
2019-03-31T02:09:13.155Z,6.60
2019-03-31T02:11:14.578Z,6.60
2019-03-31T02:13:15.939Z,6.60
2019-03-31T02:15:17.316Z,6.60
2019-03-31T02:17:19.121Z,6.60
2019-03-31T02:19:20.546Z,6.60
2019-03-31T02:21:21.913Z,6.60
2019-03-31T02:23:23.318Z,6.60
2019-03-31T02:25:24.806Z,6.60
2019-03-31T02:27:26.216Z,6.70
2019-03-31T02:29:27.624Z,6.60
2019-03-31T02:31:29.079Z,6.60
2019-03-31T02:33:30.429Z,6.60
2019-03-31T02:35:31.856Z,6.60
2019-03-31T02:37:33.230Z,6.60
2019-03-31T02:39:34.676Z,6.60
2019-03-31T02:41:36.215Z,6.60
2019-03-31T02:43:37.587Z,6.60
2019-03-31T02:45:38.957Z,6.60
2019-03-31T02:47:40.380Z,6.60
2019-03-31T02:49:41.824Z,6.60
2019-03-31T02:51:43.234Z,6.50
2019-03-31T02:53:44.597Z,6.50
2019-03-31T02:55:46.152Z,6.50
2019-03-31T02:57:48.258Z,6.40
2019-03-31T02:59:50.342Z,6.40
2019-03-31T03:01:53.225Z,6.30
2019-03-31T03:03:54.810Z,6.20
2019-03-31T03:05:58.684Z,6.10
2019-03-31T03:08:00.458Z,6.10
2019-03-31T03:10:03.560Z,6.00
2019-03-31T03:12:08.346Z,5.90
2019-03-31T03:14:11.548Z,5.80
2019-03-31T03:16:17.721Z,5.70
2019-03-31T03:18:19.143Z,5.60
2019-03-31T03:20:20.640Z,5.50
2019-03-31T03:22:21.984Z,5.50
2019-03-31T03:24:23.393Z,5.40
2019-03-31T03:26:24.751Z,5.40
2019-03-31T03:28:26.099Z,5.30
2019-03-31T03:30:27.614Z,5.30
2019-03-31T03:32:29.133Z,5.30
2019-03-31T03:34:30.725Z,5.30
2019-03-31T03:36:32.172Z,5.20
2019-03-31T03:38:33.549Z,5.20
2019-03-31T03:40:34.923Z,5.20
2019-03-31T03:42:36.337Z,5.20
2019-03-31T03:44:37.692Z,5.20
2019-03-31T03:46:39.058Z,5.10
2019-03-31T03:48:40.441Z,5.20
2019-03-31T03:50:41.852Z,5.20
2019-03-31T03:52:43.324Z,5.20
2019-03-31T03:54:44.728Z,5.30
2019-03-31T03:56:46.096Z,5.40
2019-03-31T03:58:47.463Z,5.50
2019-03-31T04:00:48.878Z,5.60
2019-03-31T04:02:50.220Z,5.70
2019-03-31T04:04:51.608Z,5.70
2019-03-31T04:06:53.119Z,5.70
2019-03-31T04:08:54.478Z,5.70
2019-03-31T04:11:09.494Z,5.70
2019-03-31T04:13:11.207Z,5.70
2019-03-31T04:15:12.566Z,5.60
2019-03-31T04:17:13.958Z,5.60
2019-03-31T04:19:15.347Z,5.60
2019-03-31T04:21:16.800Z,5.60
2019-03-31T04:23:18.176Z,5.60
2019-03-31T04:25:19.552Z,5.60
2019-03-31T04:27:20.930Z,5.50
2019-03-31T04:29:22.301Z,5.50
2019-03-31T04:31:23.694Z,5.40
2019-03-31T04:33:25.050Z,5.40
2019-03-31T04:35:26.520Z,5.30
2019-03-31T04:37:27.899Z,5.30
2019-03-31T04:39:30.149Z,5.30
2019-03-31T04:41:31.539Z,5.30
2019-03-31T04:43:32.916Z,5.20
2019-03-31T04:45:35.022Z,5.30
2019-03-31T04:47:36.373Z,5.30
2019-03-31T04:49:37.742Z,5.30
2019-03-31T04:51:39.160Z,5.30
2019-03-31T04:53:40.518Z,5.40
2019-03-31T04:55:41.887Z,5.30
2019-03-31T04:57:43.448Z,5.40
2019-03-31T04:59:44.819Z,5.30
2019-03-31T05:01:46.167Z,5.30
2019-03-31T05:03:47.742Z,5.20
2019-03-31T05:05:49.124Z,5.20
2019-03-31T05:07:50.502Z,5.10
2019-03-31T05:09:51.908Z,5.00
2019-03-31T05:11:53.262Z,5.00
2019-03-31T05:13:54.642Z,5.00
2019-03-31T05:15:56.038Z,5.00
2019-03-31T05:17:57.442Z,5.00
2019-03-31T05:19:58.795Z,5.00
2019-03-31T05:22:00.196Z,5.00
2019-03-31T05:24:01.570Z,5.00
2019-03-31T05:26:02.917Z,5.00
2019-03-31T05:28:04.320Z,5.00
2019-03-31T05:30:05.987Z,5.10
2019-03-31T05:32:07.362Z,5.20
2019-03-31T05:34:18.993Z,5.30
2019-03-31T05:36:12.212Z,5.40
2019-03-31T05:38:13.566Z,5.40
2019-03-31T05:40:14.967Z,5.60
2019-03-31T05:42:16.332Z,5.60
2019-03-31T05:44:17.750Z,5.60
2019-03-31T05:46:19.103Z,5.70
2019-03-31T05:48:20.505Z,5.80
2019-03-31T05:50:21.901Z,5.80
2019-03-31T05:52:23.256Z,6.00
2019-03-31T05:54:24.615Z,6.00
2019-03-31T05:56:26.128Z,6.10
2019-03-31T05:58:27.547Z,6.10
2019-03-31T06:00:32.524Z,6.20
2019-03-31T06:02:33.886Z,6.20
2019-03-31T06:04:35.302Z,6.30
2019-03-31T06:06:37.164Z,6.40
2019-03-31T06:08:38.724Z,6.40
2019-03-31T06:10:40.127Z,6.40
2019-03-31T06:12:41.569Z,6.40
2019-03-31T06:14:42.967Z,6.50
2019-03-31T06:16:44.374Z,6.60
2019-03-31T06:18:45.745Z,6.70
2019-03-31T06:20:47.158Z,6.80
2019-03-31T06:22:48.496Z,6.90
2019-03-31T06:24:49.875Z,6.90
2019-03-31T06:26:51.272Z,7.00
2019-03-31T06:28:52.630Z,7.10
2019-03-31T06:30:54.092Z,7.10
2019-03-31T06:32:55.717Z,7.20
2019-03-31T06:34:57.169Z,7.20
2019-03-31T06:36:58.572Z,7.20
2019-03-31T06:38:59.990Z,7.20
2019-03-31T06:41:01.355Z,7.30
2019-03-31T06:43:02.938Z,7.30
2019-03-31T06:45:06.358Z,7.30
2019-03-31T06:47:07.804Z,7.30
2019-03-31T06:49:09.200Z,7.40
2019-03-31T06:51:10.778Z,7.30
2019-03-31T06:53:12.144Z,7.30
2019-03-31T06:55:13.537Z,7.30
2019-03-31T06:57:15.020Z,7.30
2019-03-31T06:59:16.424Z,7.30
2019-03-31T07:01:17.852Z,7.40
2019-03-31T07:03:19.228Z,7.40
2019-03-31T07:05:20.683Z,7.40
2019-03-31T07:07:23.826Z,7.40
2019-03-31T07:09:25.473Z,7.40
2019-03-31T07:11:26.863Z,7.40
2019-03-31T07:13:28.286Z,7.50
2019-03-31T07:15:29.648Z,7.50
2019-03-31T07:17:31.058Z,7.60
2019-03-31T07:19:32.462Z,7.60
2019-03-31T07:21:33.824Z,7.70
2019-03-31T07:23:35.243Z,7.80
2019-03-31T07:25:37.331Z,8.00
2019-03-31T07:27:38.907Z,8.10
2019-03-31T07:29:40.303Z,8.20
2019-03-31T07:31:41.655Z,8.40
2019-03-31T07:33:43.009Z,8.50
2019-03-31T07:35:44.416Z,8.60
2019-03-31T07:37:47.593Z,8.70
2019-03-31T07:39:49.276Z,8.90
2019-03-31T07:41:51.074Z,9.00
2019-03-31T07:43:52.516Z,9.10
2019-03-31T07:45:55.832Z,9.20
2019-03-31T07:47:57.162Z,9.30
2019-03-31T07:49:58.544Z,9.40
2019-03-31T07:52:00.110Z,9.50
2019-03-31T07:54:01.467Z,9.40
2019-03-31T07:56:02.828Z,9.40
2019-03-31T07:58:04.269Z,9.60
2019-03-31T08:00:16.218Z,9.70
2019-03-31T08:02:17.679Z,9.70
2019-03-31T08:04:19.083Z,9.80
2019-03-31T08:06:20.488Z,10.00
2019-03-31T08:08:21.885Z,10.10
2019-03-31T08:10:23.366Z,10.10
2019-03-31T08:12:24.783Z,10.00
2019-03-31T08:14:26.178Z,9.90
2019-03-31T08:16:27.695Z,10.00
2019-03-31T08:18:29.071Z,10.00
2019-03-31T08:20:30.436Z,10.10
2019-03-31T08:22:31.860Z,10.10
2019-03-31T08:24:42.100Z,10.20
2019-03-31T08:26:43.511Z,10.40
2019-03-31T08:28:44.916Z,10.50
2019-03-31T08:30:46.274Z,10.60
2019-03-31T08:32:47.676Z,10.70
2019-03-31T08:34:49.068Z,10.80
2019-03-31T08:36:50.447Z,10.90
2019-03-31T08:38:51.868Z,10.90
2019-03-31T08:40:53.335Z,10.90
2019-03-31T08:42:54.704Z,10.60
2019-03-31T08:44:56.118Z,10.50
2019-03-31T08:46:57.470Z,10.30
2019-03-31T08:48:58.845Z,10.10
2019-03-31T08:51:00.256Z,10.20
2019-03-31T08:53:01.618Z,10.30
2019-03-31T08:55:04.930Z,10.40
2019-03-31T08:57:06.307Z,10.60
2019-03-31T08:59:07.686Z,10.70
2019-03-31T09:01:11.007Z,10.80
2019-03-31T09:03:12.396Z,10.70
2019-03-31T09:05:14.119Z,10.80
2019-03-31T09:07:15.832Z,10.70
2019-03-31T09:09:17.192Z,10.70
2019-03-31T09:11:18.891Z,10.70
2019-03-31T09:13:20.271Z,10.60
2019-03-31T09:15:21.675Z,10.60
2019-03-31T09:17:23.098Z,10.60
2019-03-31T09:19:24.510Z,10.60
2019-03-31T09:21:25.893Z,10.40
2019-03-31T09:23:27.299Z,10.40
2019-03-31T09:25:28.692Z,10.40
2019-03-31T09:27:30.067Z,10.50
2019-03-31T09:29:31.449Z,10.60
2019-03-31T09:31:32.831Z,10.60
2019-03-31T09:33:34.252Z,10.50
2019-03-31T09:35:35.617Z,10.50
2019-03-31T09:37:37.085Z,10.60
2019-03-31T09:39:38.478Z,10.80
2019-03-31T09:41:39.836Z,11.00
2019-03-31T09:43:41.242Z,11.20
2019-03-31T09:45:42.638Z,11.10
2019-03-31T09:47:43.987Z,11.10
2019-03-31T09:49:45.381Z,11.00
2019-03-31T09:51:46.743Z,10.90
2019-03-31T09:53:48.126Z,10.90
2019-03-31T09:55:49.539Z,11.10
2019-03-31T09:57:50.928Z,11.20
2019-03-31T09:59:52.276Z,11.20
2019-03-31T10:01:53.685Z,11.10
2019-03-31T10:03:55.074Z,11.10
2019-03-31T10:06:09.944Z,11.10
2019-03-31T10:07:59.828Z,11.10
2019-03-31T10:10:02.810Z,11.10
2019-03-31T10:12:04.232Z,11.10
2019-03-31T10:14:05.587Z,11.00
2019-03-31T10:16:06.959Z,10.90
2019-03-31T10:18:08.386Z,10.90
2019-03-31T10:20:09.951Z,10.90
2019-03-31T10:22:11.318Z,11.00
2019-03-31T10:24:12.722Z,11.10
2019-03-31T10:26:16.162Z,11.30
2019-03-31T10:28:17.358Z,11.50
2019-03-31T10:30:33.510Z,11.60
2019-03-31T10:32:54.787Z,11.80
2019-03-31T10:35:36.027Z,11.80
2019-03-31T10:38:17.226Z,11.70
2019-03-31T10:40:58.380Z,11.50
2019-03-31T10:42:59.780Z,11.30
2019-03-31T10:45:21.107Z,11.00
2019-03-31T10:47:42.383Z,10.90
2019-03-31T10:50:25.485Z,10.80
2019-03-31T10:52:46.859Z,10.70
2019-03-31T10:55:08.274Z,10.50
2019-03-31T10:57:29.582Z,10.40
2019-03-31T10:59:50.831Z,10.30
2019-03-31T11:02:12.333Z,10.30
2019-03-31T11:04:33.607Z,10.30
2019-03-31T11:06:59.618Z,10.30
2019-03-31T11:09:38.001Z,10.50
2019-03-31T11:11:52.426Z,10.60
2019-03-31T11:14:13.707Z,10.60
2019-03-31T11:16:35.008Z,10.80
2019-03-31T11:18:56.291Z,10.90
2019-03-31T11:24:06.805Z,11.30
2019-03-31T11:26:28.066Z,11.60
2019-03-31T11:28:49.343Z,11.80
2019-03-31T11:31:10.649Z,11.90
2019-03-31T11:33:31.934Z,12.00
2019-03-31T11:35:53.301Z,11.90
2019-03-31T11:38:14.652Z,11.60
2019-03-31T11:40:35.925Z,11.50
2019-03-31T11:42:57.182Z,11.60
2019-03-31T11:45:18.569Z,11.90
2019-03-31T11:47:19.990Z,12.30
2019-03-31T11:49:41.235Z,12.30
2019-03-31T11:51:56.457Z,12.20
2019-03-31T11:54:17.794Z,11.80
2019-03-31T11:56:39.062Z,11.50
2019-03-31T11:58:40.419Z,11.60
2019-03-31T12:00:46.610Z,11.90
2019-03-31T12:02:47.969Z,12.20
2019-03-31T12:04:49.343Z,12.30
2019-03-31T12:06:50.721Z,12.20
2019-03-31T12:08:52.115Z,12.30
2019-03-31T12:10:53.582Z,12.50
2019-03-31T12:12:54.958Z,12.60
2019-03-31T12:15:00.733Z,12.50
2019-03-31T12:16:59.678Z,12.30
2019-03-31T12:19:01.125Z,12.10
2019-03-31T12:21:02.583Z,11.90
2019-03-31T12:23:03.959Z,11.90
2019-03-31T12:25:07.441Z,11.90
2019-03-31T12:27:08.814Z,12.00
2019-03-31T12:29:10.192Z,12.10
2019-03-31T12:31:11.568Z,12.10
2019-03-31T12:33:12.951Z,12.00
2019-03-31T12:35:14.360Z,12.10
2019-03-31T12:37:15.713Z,12.00
2019-03-31T12:39:17.126Z,11.80
2019-03-31T12:41:18.516Z,11.70
2019-03-31T12:43:19.931Z,11.70
2019-03-31T12:45:21.290Z,12.00
2019-03-31T12:47:22.642Z,12.40
2019-03-31T12:49:24.036Z,12.70
2019-03-31T12:51:25.414Z,12.90
2019-03-31T12:53:26.792Z,13.30
2019-03-31T12:55:28.195Z,13.50
2019-03-31T12:57:29.554Z,13.50
2019-03-31T12:59:30.917Z,13.70
2019-03-31T13:01:32.305Z,13.80
2019-03-31T13:03:33.703Z,14.00
2019-03-31T13:05:35.072Z,13.80
2019-03-31T13:07:36.444Z,13.50
2019-03-31T13:09:37.826Z,13.60
2019-03-31T13:11:39.235Z,13.80
2019-03-31T13:13:40.587Z,14.00
2019-03-31T13:15:41.981Z,14.20
2019-03-31T13:17:43.374Z,14.20
2019-03-31T13:19:44.745Z,14.10
2019-03-31T13:21:46.091Z,13.70
2019-03-31T13:23:47.494Z,13.70
2019-03-31T13:25:48.889Z,13.80
2019-03-31T13:27:50.245Z,14.00
2019-03-31T13:29:51.601Z,14.00
2019-03-31T13:31:52.979Z,14.30
2019-03-31T13:33:54.350Z,14.70
2019-03-31T13:35:55.746Z,14.90
2019-03-31T13:38:10.433Z,15.10
2019-03-31T13:40:00.416Z,15.10
2019-03-31T13:42:01.786Z,15.00
2019-03-31T13:44:03.313Z,14.80
2019-03-31T13:46:04.679Z,14.30
2019-03-31T13:48:06.049Z,14.10
2019-03-31T13:50:08.040Z,14.30
2019-03-31T13:52:09.435Z,14.60
2019-03-31T13:54:10.790Z,14.60
2019-03-31T13:56:12.482Z,14.50
2019-03-31T13:58:15.158Z,14.50
2019-03-31T14:00:33.554Z,14.60
2019-03-31T14:02:35.020Z,14.70
2019-03-31T14:04:50.725Z,14.80
2019-03-31T14:06:39.669Z,14.90
2019-03-31T14:08:41.053Z,14.90
2019-03-31T14:10:43.446Z,14.70
2019-03-31T14:12:44.791Z,14.30
2019-03-31T14:14:46.207Z,14.30
2019-03-31T14:16:47.549Z,14.30
2019-03-31T14:18:48.904Z,14.30
2019-03-31T14:20:50.297Z,14.50
2019-03-31T14:22:51.652Z,14.60
2019-03-31T14:24:53.019Z,14.60
2019-03-31T14:26:54.440Z,14.70
2019-03-31T14:28:55.799Z,14.60
2019-03-31T14:30:57.366Z,14.60
2019-03-31T14:32:58.730Z,14.50
2019-03-31T14:35:00.376Z,14.50
2019-03-31T14:37:01.862Z,14.40
2019-03-31T14:39:06.846Z,14.10
2019-03-31T14:41:08.454Z,14.10
2019-03-31T14:43:09.800Z,14.30
2019-03-31T14:45:30.348Z,14.50
2019-03-31T14:47:31.774Z,14.40
2019-03-31T14:49:33.140Z,14.50
2019-03-31T14:51:34.521Z,14.60
2019-03-31T14:53:35.905Z,14.80
2019-03-31T14:55:37.280Z,14.60
2019-03-31T14:57:38.699Z,14.10
2019-03-31T14:59:40.040Z,14.10
2019-03-31T15:01:41.396Z,14.20
2019-03-31T15:03:42.821Z,14.30
2019-03-31T15:05:44.194Z,14.50
2019-03-31T15:07:45.637Z,14.70
2019-03-31T15:09:47.031Z,14.80
2019-03-31T15:11:48.391Z,14.90
2019-03-31T15:13:49.749Z,15.10
2019-03-31T15:15:51.140Z,15.00
2019-03-31T15:17:52.514Z,14.90
2019-03-31T15:19:53.900Z,15.10
2019-03-31T15:21:55.289Z,15.20
2019-03-31T15:23:56.661Z,15.40
2019-03-31T15:25:57.998Z,15.20
2019-03-31T15:27:59.383Z,15.30
2019-03-31T15:30:03.234Z,15.10
2019-03-31T15:32:04.582Z,14.90
2019-03-31T15:34:06.061Z,14.80
2019-03-31T15:36:07.601Z,14.80
2019-03-31T15:38:08.984Z,14.70
2019-03-31T15:40:11.078Z,14.40
2019-03-31T15:42:12.470Z,14.10
2019-03-31T15:44:13.820Z,14.10
2019-03-31T15:46:15.245Z,14.10
2019-03-31T15:48:16.604Z,14.10
2019-03-31T15:50:18.264Z,14.20
2019-03-31T15:52:19.694Z,13.90
2019-03-31T15:54:21.067Z,14.10
2019-03-31T15:56:22.429Z,14.30
2019-03-31T15:58:23.842Z,14.50
2019-03-31T16:00:25.191Z,14.70
2019-03-31T16:02:28.562Z,14.90
2019-03-31T16:04:29.955Z,15.00
2019-03-31T16:06:31.333Z,15.20
2019-03-31T16:08:32.716Z,15.10
2019-03-31T16:10:34.219Z,15.20
2019-03-31T16:12:35.646Z,15.20
2019-03-31T16:14:37.020Z,14.90
2019-03-31T16:16:38.400Z,14.60
2019-03-31T16:18:39.784Z,14.50
2019-03-31T16:20:41.162Z,14.30
2019-03-31T16:22:42.523Z,14.20
2019-03-31T16:24:45.833Z,14.00
2019-03-31T16:26:47.180Z,13.90
2019-03-31T16:28:48.600Z,13.70
2019-03-31T16:30:49.972Z,13.70
2019-03-31T16:32:51.372Z,13.50
2019-03-31T16:34:52.765Z,13.30
2019-03-31T16:36:54.156Z,13.20
2019-03-31T16:38:55.518Z,13.20
2019-03-31T16:40:56.898Z,12.90
2019-03-31T16:42:58.291Z,12.90
2019-03-31T16:44:59.656Z,12.80
2019-03-31T16:47:01.041Z,12.60
2019-03-31T16:49:02.449Z,12.50
2019-03-31T16:51:03.815Z,12.30
2019-03-31T16:53:05.185Z,12.20
2019-03-31T16:55:06.875Z,12.10
2019-03-31T16:57:08.506Z,12.30
2019-03-31T16:59:09.920Z,12.40
2019-03-31T17:01:11.319Z,12.30
2019-03-31T17:03:12.674Z,12.40
2019-03-31T17:05:21.584Z,12.40
2019-03-31T17:07:17.620Z,12.40
2019-03-31T17:09:19.017Z,12.30
2019-03-31T17:11:20.369Z,12.30
2019-03-31T17:13:21.781Z,12.30
2019-03-31T17:15:23.131Z,12.20
2019-03-31T17:17:24.539Z,12.10
2019-03-31T17:19:25.924Z,12.10
2019-03-31T17:21:27.270Z,12.00
2019-03-31T17:23:28.651Z,11.80
2019-03-31T17:25:30.171Z,11.70
2019-03-31T17:27:31.564Z,11.50
2019-03-31T17:29:32.929Z,11.30
2019-03-31T17:31:34.278Z,11.20
2019-03-31T17:33:35.684Z,11.00
2019-03-31T17:35:37.035Z,10.90
2019-03-31T17:37:38.394Z,10.90
2019-03-31T17:39:39.801Z,10.80
2019-03-31T17:41:41.221Z,10.80
2019-03-31T17:43:42.599Z,10.70
2019-03-31T17:45:44.049Z,10.40
2019-03-31T17:47:45.437Z,10.40
2019-03-31T17:49:46.816Z,10.40
2019-03-31T17:51:48.479Z,10.10
2019-03-31T17:53:50.117Z,10.00
2019-03-31T17:55:51.499Z,10.00
2019-03-31T17:57:52.837Z,9.90
2019-03-31T17:59:54.236Z,9.80
2019-03-31T18:01:55.595Z,9.60
2019-03-31T18:03:56.976Z,9.60
2019-03-31T18:05:58.371Z,9.60
2019-03-31T18:07:59.810Z,9.50
2019-03-31T18:10:01.182Z,9.30
2019-03-31T18:12:02.560Z,9.30
2019-03-31T18:14:06.806Z,9.30
2019-03-31T18:16:07.351Z,9.20
2019-03-31T18:18:08.725Z,9.00
2019-03-31T18:20:10.246Z,9.00
2019-03-31T18:22:16.786Z,9.00
2019-03-31T18:24:14.963Z,9.00
2019-03-31T18:26:16.345Z,8.80
2019-03-31T18:28:17.675Z,8.80
2019-03-31T18:30:19.911Z,8.60
2019-03-31T18:32:21.238Z,8.60
2019-03-31T18:34:22.632Z,8.50
2019-03-31T18:36:35.929Z,8.40
2019-03-31T18:38:27.299Z,8.30
2019-03-31T18:40:35.259Z,8.20
2019-03-31T18:42:32.189Z,8.20
2019-03-31T18:44:33.558Z,8.10
2019-03-31T18:46:34.989Z,8.00
2019-03-31T18:48:36.363Z,7.90
2019-03-31T18:50:37.761Z,7.90
2019-03-31T18:52:39.204Z,7.80
2019-03-31T18:54:48.153Z,7.80
2019-03-31T18:57:03.679Z,7.80
2019-03-31T18:59:07.010Z,7.70
2019-03-31T19:01:15.965Z,7.60
2019-03-31T19:03:37.274Z,7.50
2019-03-31T19:05:52.545Z,7.40
2019-03-31T19:07:55.804Z,7.40
2019-03-31T19:10:04.989Z,7.40
2019-03-31T19:12:26.512Z,7.30
2019-03-31T19:14:30.107Z,7.30
2019-03-31T19:16:33.425Z,7.30
2019-03-31T19:18:39.579Z,7.10
2019-03-31T19:20:54.800Z,7.10
2019-03-31T19:22:58.163Z,7.00
2019-03-31T19:25:18.312Z,6.90
2019-03-31T19:27:30.505Z,6.90
2019-03-31T19:29:45.712Z,6.80
2019-03-31T19:31:51.756Z,6.70
2019-03-31T19:34:09.990Z,6.80
2019-03-31T19:36:30.144Z,6.50
2019-03-31T19:38:33.451Z,6.50
2019-03-31T19:40:45.946Z,6.40
2019-03-31T19:43:04.545Z,6.40
2019-03-31T19:45:19.880Z,6.50
2019-03-31T19:47:23.813Z,6.40
2019-03-31T19:49:36.074Z,6.40
2019-03-31T19:51:51.227Z,6.30
2019-03-31T19:54:11.375Z,6.20
2019-03-31T19:56:20.577Z,6.10
2019-03-31T19:58:40.695Z,6.10
2019-03-31T20:00:53.974Z,6.00
2019-03-31T20:02:57.291Z,6.00
2019-03-31T20:05:00.554Z,6.00
2019-03-31T20:07:04.618Z,5.90
2019-03-31T20:09:17.972Z,5.90
2019-03-31T20:11:27.119Z,5.90
2019-03-31T20:13:33.321Z,5.80
2019-03-31T20:15:42.552Z,5.80
2019-03-31T20:18:01.159Z,5.70
2019-03-31T20:20:09.579Z,5.70
2019-03-31T20:22:31.019Z,5.70
2019-03-31T20:24:34.311Z,5.70
2019-03-31T20:26:46.718Z,5.60
2019-03-31T20:28:50.016Z,5.60
2019-03-31T20:31:10.214Z,5.60
2019-03-31T20:33:22.446Z,5.60
2019-03-31T20:35:34.707Z,5.40
2019-03-31T20:37:41.560Z,5.40
2019-03-31T20:39:56.682Z,5.30
2019-03-31T20:41:55.901Z,5.20
2019-03-31T20:43:57.297Z,5.10
2019-03-31T20:45:58.687Z,5.10
2019-03-31T20:48:06.306Z,5.10
2019-03-31T20:50:07.879Z,5.10
2019-03-31T20:52:09.251Z,5.10
2019-03-31T20:54:10.727Z,5.00
2019-03-31T20:56:12.100Z,5.00
2019-03-31T20:58:13.452Z,4.90
2019-03-31T21:00:15.153Z,4.90
2019-03-31T21:02:16.533Z,4.90
2019-03-31T21:04:17.926Z,4.80
2019-03-31T21:06:19.306Z,4.70
2019-03-31T21:08:20.680Z,4.70
2019-03-31T21:10:22.046Z,4.60
2019-03-31T21:12:23.417Z,4.60
2019-03-31T21:14:24.817Z,4.60
2019-03-31T21:16:26.576Z,4.50
2019-03-31T21:18:27.944Z,4.40
2019-03-31T21:20:29.325Z,4.30
2019-03-31T21:22:30.683Z,4.30
2019-03-31T21:24:32.047Z,4.30
2019-03-31T21:26:33.463Z,4.30
2019-03-31T21:28:34.864Z,4.20
2019-03-31T21:30:36.975Z,4.20
2019-03-31T21:32:38.593Z,4.20
2019-03-31T21:34:40.186Z,4.20
2019-03-31T21:36:41.548Z,4.10
2019-03-31T21:38:42.949Z,4.00
2019-03-31T21:40:44.356Z,4.00
2019-03-31T21:42:45.726Z,4.00
2019-03-31T21:44:47.136Z,4.00
2019-03-31T21:46:48.527Z,4.00
2019-03-31T21:48:49.919Z,4.00
2019-03-31T21:50:51.282Z,4.00
2019-03-31T21:52:52.650Z,3.90
2019-03-31T21:54:54.036Z,3.90
2019-03-31T21:56:55.437Z,3.80
2019-03-31T21:58:56.792Z,3.80
2019-03-31T22:00:58.571Z,3.70
2019-03-31T22:02:59.973Z,3.70
2019-03-31T22:05:01.939Z,3.60
2019-03-31T22:07:03.427Z,3.60
2019-03-31T22:09:07.297Z,3.50
2019-03-31T22:11:08.683Z,3.50
2019-03-31T22:13:10.056Z,3.30
2019-03-31T22:15:11.618Z,3.30
2019-03-31T22:17:13.020Z,3.20
2019-03-31T22:19:14.378Z,3.20
2019-03-31T22:21:15.774Z,3.10
2019-03-31T22:23:17.172Z,3.10
2019-03-31T22:25:18.574Z,3.00
2019-03-31T22:27:19.933Z,2.90
2019-03-31T22:29:21.336Z,2.80
2019-03-31T22:31:22.694Z,2.70
2019-03-31T22:33:24.274Z,2.70
2019-03-31T22:35:25.638Z,2.60
2019-03-31T22:37:27.040Z,2.50
2019-03-31T22:39:28.489Z,2.40
2019-03-31T22:41:29.861Z,2.40
2019-03-31T22:43:31.238Z,2.30
2019-03-31T22:45:32.647Z,2.20
2019-03-31T22:47:34.004Z,2.20
2019-03-31T22:49:35.391Z,2.20
2019-03-31T22:51:36.755Z,2.20
2019-03-31T22:53:38.167Z,2.20
2019-03-31T22:55:39.606Z,2.10
2019-03-31T22:57:40.971Z,2.10
2019-03-31T22:59:42.342Z,2.10
2019-03-31T23:01:43.755Z,2.10
2019-03-31T23:03:45.118Z,2.10
2019-03-31T23:05:46.481Z,2.10
2019-03-31T23:07:47.920Z,2.00
2019-03-31T23:09:49.282Z,2.00
2019-03-31T23:11:50.746Z,2.00
2019-03-31T23:13:52.147Z,1.90
2019-03-31T23:15:53.650Z,1.90
2019-03-31T23:17:55.009Z,1.80
2019-03-31T23:19:56.403Z,1.70
2019-03-31T23:21:57.759Z,1.50
2019-03-31T23:23:59.131Z,1.30
2019-03-31T23:26:00.513Z,1.30
2019-03-31T23:28:01.903Z,1.20
2019-03-31T23:30:07.761Z,1.10
2019-03-31T23:32:09.166Z,1.10
2019-03-31T23:34:10.539Z,1.00
2019-03-31T23:36:11.930Z,1.00
2019-03-31T23:38:13.281Z,0.90
2019-03-31T23:40:14.868Z,0.90
2019-03-31T23:42:16.252Z,0.90
2019-03-31T23:44:17.617Z,0.90
2019-03-31T23:46:19.029Z,0.90
2019-03-31T23:48:20.419Z,0.90
2019-03-31T23:50:21.794Z,0.80
2019-03-31T23:52:23.165Z,0.80
2019-03-31T23:54:24.585Z,0.80
2019-03-31T23:56:25.987Z,0.80
2019-03-31T23:58:27.347Z,0.80
